Time;durP1;ratioP1;P1;durP2;ratioP2;P2;SDS_P1;SDS_P2;PMS_P1;PMS_P2;Temp;Humidity;BMP_temperature;BMP_pressure;BME280_temperature;BME280_humidity;BME280_pressure;Samples;Min_cycle;Max_cycle;Signal;HPM_P1;HPM_P2
2023/01/24 00:00:12;;;;;;;0.10;0.10;;;;;;;5.62;65.84;104008.38;5055888;28;20135;-80
2023/01/24 00:02:39;;;;;;;0.20;0.20;;;;;;;5.64;65.84;103998.84;5057018;28;20515;-80
2023/01/24 00:05:14;;;;;;;0.95;0.95;;;;;;;5.64;66.03;103996.22;5049093;28;20033;-80
2023/01/24 00:07:40;;;;;;;0.43;0.43;;;;;;;5.62;65.90;103997.84;5048638;28;20024;-80
2023/01/24 00:10:06;;;;;;;0.20;0.20;;;;;;;5.60;66.13;103996.91;5054046;28;20119;-80
2023/01/24 00:12:33;;;;;;;0.15;0.15;;;;;;;5.56;66.03;103994.91;5055156;28;20078;-80
2023/01/24 00:14:59;;;;;;;0.20;0.20;;;;;;;5.53;65.82;103992.13;5061059;28;20037;-80
2023/01/24 00:17:25;;;;;;;0.20;0.20;;;;;;;5.52;66.02;103991.25;5056288;28;20029;-81
2023/01/24 00:19:51;;;;;;;0.75;0.75;;;;;;;5.54;66.08;103994.84;5041966;28;20516;-80
2023/01/24 00:22:17;;;;;;;0.52;0.52;;;;;;;5.57;65.93;103999.34;5057068;28;20045;-80
2023/01/24 00:24:43;;;;;;;0.20;0.20;;;;;;;5.58;66.15;103995.91;5047420;28;20028;-80
2023/01/24 00:27:09;;;;;;;0.40;0.40;;;;;;;5.60;66.26;103996.91;5056284;28;20528;-80
2023/01/24 00:29:35;;;;;;;0.77;0.77;;;;;;;5.61;66.08;103996.97;5055607;28;20040;-80
2023/01/24 00:32:01;;;;;;;0.20;0.20;;;;;;;5.60;65.76;103995.16;5049789;28;20037;-81
2023/01/24 00:34:27;;;;;;;0.20;0.20;;;;;;;5.59;65.95;103992.44;5056281;28;20029;-80
2023/01/24 00:36:53;;;;;;;0.10;0.10;;;;;;;5.54;65.48;104001.84;5056372;28;20098;-80
2023/01/24 00:39:19;;;;;;;2.50;2.00;;;;;;;5.54;65.80;103992.19;5053405;28;20476;-80
2023/01/24 00:41:46;;;;;;;0.47;0.47;;;;;;;5.55;65.77;103993.13;5054022;28;20032;-80
2023/01/24 00:44:12;;;;;;;0.10;0.10;;;;;;;5.57;65.75;103994.09;5056877;28;20107;-80
2023/01/24 00:46:38;;;;;;;0.20;0.20;;;;;;;5.57;65.63;103988.81;5055172;28;20032;-80
2023/01/24 00:49:04;;;;;;;0.10;0.10;;;;;;;5.58;65.44;103985.38;5050595;28;20033;-80
2023/01/24 00:51:30;;;;;;;0.20;0.20;;;;;;;5.59;65.74;103987.19;5056449;28;20515;-80
2023/01/24 00:53:56;;;;;;;0.10;0.10;;;;;;;5.58;65.66;103988.00;5054773;28;20025;-81
2023/01/24 00:56:22;;;;;;;0.10;0.10;;;;;;;5.61;65.52;103990.81;5053369;28;20033;-80
2023/01/24 00:58:48;;;;;;;0.60;0.60;;;;;;;5.55;65.33;103979.97;5053619;28;20060;-80
2023/01/24 01:01:14;;;;;;;0.80;0.52;;;;;;;5.56;65.55;103987.94;5055023;28;20024;-80
2023/01/24 01:03:40;;;;;;;0.20;0.20;;;;;;;5.58;65.98;103977.50;5055109;28;20065;-78
2023/01/24 01:06:11;;;;;;;0.20;0.20;;;;;;;5.55;65.88;103977.34;5053024;28;20037;-80
2023/01/24 01:08:38;;;;;;;0.20;0.20;;;;;;;5.51;65.96;103979.81;5053329;28;20029;-78
2023/01/24 01:11:04;;;;;;;0.10;0.10;;;;;;;5.51;65.61;103984.16;5050269;28;20116;-80
2023/01/24 01:13:31;;;;;;;0.22;0.22;;;;;;;5.51;65.96;103969.28;5055290;28;20111;-80
2023/01/24 01:16:02;;;;;;;0.10;0.10;;;;;;;5.56;66.09;103973.88;5070566;28;20036;-79
2023/01/24 01:18:28;;;;;;;0.65;0.43;;;;;;;5.53;66.21;103968.47;5069582;28;20009;-79
2023/01/24 01:20:54;;;;;;;0.20;0.20;;;;;;;5.49;65.84;103964.78;5065339;28;20017;-79
2023/01/24 01:23:20;;;;;;;0.65;0.65;;;;;;;5.49;66.22;103967.41;5066904;28;20037;-79
2023/01/24 01:25:46;;;;;;;4.18;3.03;;;;;;;5.48;65.74;103966.50;5068480;28;20033;-79
2023/01/24 01:28:13;;;;;;;0.20;0.20;;;;;;;5.51;66.27;103973.66;5064726;28;20195;-79
2023/01/24 01:30:39;;;;;;;0.10;0.10;;;;;;;5.49;66.19;103970.91;5057840;28;20037;-80
2023/01/24 01:33:05;;;;;;;0.15;0.15;;;;;;;5.50;66.01;103967.47;5053063;28;20087;-80
2023/01/24 01:35:31;;;;;;;0.20;0.20;;;;;;;5.47;65.60;103967.31;5053913;28;20061;-80
2023/01/24 01:37:57;;;;;;;0.10;0.10;;;;;;;5.47;65.74;103969.97;5050663;28;20088;-80
2023/01/24 01:40:24;;;;;;;0.10;0.10;;;;;;;5.47;65.75;103966.41;5048478;28;20025;-80
2023/01/24 01:45:37;;;;;;;0.10;0.10;;;;;;;5.47;65.52;103969.97;5103473;27;20351;-80
2023/01/24 01:48:15;;;;;;;0.10;0.10;;;;;;;5.53;65.85;103965.84;5107562;28;20051;-80
2023/01/24 01:50:56;;;;;;;0.10;0.10;;;;;;;5.49;65.89;103959.50;5104702;28;20030;-80
2023/01/24 01:53:27;;;;;;;0.20;0.20;;;;;;;5.47;65.78;103966.41;5093409;28;20047;-80
2023/01/24 01:56:02;;;;;;;0.10;0.10;;;;;;;5.45;65.96;103958.44;5102039;28;20026;-80
2023/01/24 01:58:28;;;;;;;0.10;0.10;;;;;;;5.44;65.49;103961.88;5095926;28;20058;-80
2023/01/24 02:00:54;;;;;;;0.10;0.10;;;;;;;5.43;65.89;103960.13;5107289;28;20016;-80
2023/01/24 02:03:39;;;;;;;0.10;0.10;;;;;;;5.47;65.95;103967.31;5104917;28;20081;-80
2023/01/24 02:06:15;;;;;;;0.20;0.20;;;;;;;5.45;66.10;103965.44;5103782;28;20027;-80
2023/01/24 02:08:43;;;;;;;0.20;0.20;;;;;;;5.39;65.45;103958.13;5095929;28;20028;-80
2023/01/24 02:11:43;;;;;;;0.30;0.30;;;;;;;5.35;65.66;103951.81;5103703;28;20024;-80
2023/01/24 02:16:02;;;;;;;0.30;0.30;;;;;;;5.34;65.80;103954.34;5100015;28;20027;-80
2023/01/24 02:16:45;;;;;;;0.10;0.10;;;;;;;5.33;65.72;103957.81;5096040;28;20032;-80
2023/01/24 02:19:23;;;;;;;0.90;0.88;;;;;;;5.36;65.79;103952.72;5106591;28;20026;-80
2023/01/24 02:21:54;;;;;;;0.17;0.17;;;;;;;5.33;65.72;103955.19;5098237;28;20024;-80
2023/01/24 02:24:31;;;;;;;0.10;0.10;;;;;;;5.35;66.05;103959.69;5101092;28;20031;-80
2023/01/24 02:26:57;;;;;;;0.20;0.20;;;;;;;5.32;65.93;103958.63;5105680;28;20028;-81
2023/01/24 02:29:23;;;;;;;0.22;0.22;;;;;;;5.31;65.76;103957.75;5098406;28;20557;-80
2023/01/24 02:34:36;;;;;;;0.20;0.20;;;;;;;5.30;65.66;103955.91;5082084;27;20411;-79
2023/01/24 02:37:09;;;;;;;0.10;0.10;;;;;;;5.30;65.59;103957.66;5067190;28;20446;-79
2023/01/24 02:39:58;;;;;;;2.38;1.55;;;;;;;5.31;66.09;103954.22;5070188;28;20021;-80
2023/01/24 02:42:30;;;;;;;0.20;0.20;;;;;;;5.29;65.70;103966.38;5073352;28;20068;-79
2023/01/24 02:45:09;;;;;;;3.50;2.15;;;;;;;5.26;65.32;103967.13;5077414;28;20553;-79
2023/01/24 02:47:47;;;;;;;0.20;0.20;;;;;;;5.27;65.42;103962.75;5071276;28;20017;-79
2023/01/24 02:50:15;;;;;;;0.57;0.57;;;;;;;5.21;65.37;103957.16;5071406;28;20029;-79
2023/01/24 02:55:27;;;;;;;0.20;0.20;;;;;;;5.22;65.76;103953.72;5069722;28;20040;-79
2023/01/24 02:58:08;;;;;;;0.30;0.30;;;;;;;5.22;65.52;103958.97;5073415;28;20062;-79
2023/01/24 03:00:38;;;;;;;4.35;1.70;;;;;;;5.26;66.06;103960.94;5068826;28;20027;-79
2023/01/24 03:03:06;;;;;;;1.02;0.85;;;;;;;5.21;65.71;103952.84;5068873;28;20045;-79
2023/01/24 03:05:55;;;;;;;0.60;0.60;;;;;;;5.17;65.37;103949.13;5064390;28;20450;-79
2023/01/24 03:08:22;;;;;;;1.55;1.38;;;;;;;5.21;65.59;103951.91;5072602;28;20492;-79
2023/01/24 03:10:48;;;;;;;0.15;0.15;;;;;;;5.23;65.50;103950.28;5069048;28;20029;-79
2023/01/24 03:35:25;;;;;;;0.20;0.20;;;;;;;5.25;65.61;103940.75;5065937;28;20052;-79
2023/01/24 03:40:37;;;;;;;0.73;0.73;;;;;;;5.24;65.46;103936.31;5063234;28;20571;-79
2023/01/24 03:43:04;;;;;;;1.27;1.17;;;;;;;5.18;65.43;103937.81;5068425;28;20039;-79
2023/01/24 03:45:33;;;;;;;0.45;0.38;;;;;;;5.21;65.51;103934.44;5057700;28;20412;-79
2023/01/24 03:48:03;;;;;;;0.20;0.20;;;;;;;5.18;65.06;103943.06;5055717;28;20389;-79
2023/01/24 03:53:21;;;;;;;0.10;0.10;;;;;;;5.16;65.23;103942.06;5060116;28;20029;-79
2023/01/24 03:55:52;;;;;;;0.20;0.20;;;;;;;5.21;65.41;103946.66;5056848;28;20390;-79
2023/01/24 03:58:19;;;;;;;0.10;0.10;;;;;;;5.21;65.58;103949.28;5059362;28;20108;-79
2023/01/24 04:00:45;;;;;;;0.20;0.20;;;;;;;5.23;65.60;103955.53;5048627;28;20024;-79
2023/01/24 04:03:11;;;;;;;0.20;0.20;;;;;;;5.25;65.73;103956.53;5065390;28;20033;-79
2023/01/24 04:05:37;;;;;;;0.10;0.10;;;;;;;5.26;65.52;103950.41;5055685;28;20051;-79
2023/01/24 04:08:04;;;;;;;1.30;1.30;;;;;;;5.29;65.61;103942.72;5055892;28;20025;-79
2023/01/24 04:10:30;;;;;;;0.35;0.35;;;;;;;5.29;65.64;103945.34;5057390;28;20032;-79
2023/01/24 04:12:57;;;;;;;0.15;0.15;;;;;;;5.27;65.52;103950.53;5055698;28;20040;-79
2023/01/24 04:15:26;;;;;;;0.22;0.22;;;;;;;5.28;65.23;103951.41;5055669;28;20404;-79
2023/01/24 04:17:56;;;;;;;0.30;0.30;;;;;;;5.25;65.04;103943.38;5058381;28;20031;-79
2023/01/24 04:20:22;;;;;;;4.05;0.93;;;;;;;5.21;65.00;103937.06;5058454;28;20067;-80
2023/01/24 04:22:49;;;;;;;0.10;0.10;;;;;;;5.22;64.91;103948.47;5061459;28;20028;-79
2023/01/24 04:25:15;;;;;;;0.30;0.30;;;;;;;5.20;65.34;103940.50;5065810;28;20086;-79
2023/01/24 04:27:41;;;;;;;0.82;0.82;;;;;;;5.18;65.41;103940.44;5051892;28;20118;-79
2023/01/24 04:30:09;;;;;;;0.10;0.10;;;;;;;5.17;65.23;103940.31;5056866;28;20524;-79
2023/01/24 04:32:36;;;;;;;0.20;0.20;;;;;;;5.15;65.15;103940.25;5060300;28;20032;-79
2023/01/24 04:35:03;;;;;;;0.20;0.20;;;;;;;5.16;65.35;103944.69;5052164;28;20183;-79
2023/01/24 04:37:30;;;;;;;0.25;0.25;;;;;;;5.14;65.30;103938.44;5055191;28;20064;-79
2023/01/24 04:39:56;;;;;;;0.20;0.20;;;;;;;5.13;65.37;103943.63;5057843;28;20065;-79
2023/01/24 04:42:22;;;;;;;0.52;0.52;;;;;;;5.12;65.48;103947.06;5055302;28;20190;-79
2023/01/24 04:44:48;;;;;;;0.10;0.10;;;;;;;5.15;65.59;103945.50;5055717;28;20071;-79
2023/01/24 04:47:15;;;;;;;0.10;0.10;;;;;;;5.17;65.86;103951.75;5060012;28;20020;-79
2023/01/24 04:49:41;;;;;;;0.30;0.30;;;;;;;5.19;65.82;103955.34;5049137;28;20025;-79
2023/01/24 04:52:10;;;;;;;0.10;0.10;;;;;;;5.22;65.88;103949.38;5054636;28;20031;-79
2023/01/24 04:54:37;;;;;;;0.15;0.15;;;;;;;5.16;65.44;103954.31;5057845;28;20400;-79
2023/01/24 04:57:03;;;;;;;0.10;0.10;;;;;;;5.14;65.37;103958.56;5061659;28;20253;-79
2023/01/24 04:59:29;;;;;;;0.10;0.10;;;;;;;5.12;65.42;103958.50;5059798;28;20037;-79
2023/01/24 05:01:55;;;;;;;0.10;0.10;;;;;;;5.12;65.63;103961.13;5054759;28;20439;-79
2023/01/24 05:04:21;;;;;;;1.05;1.05;;;;;;;5.10;65.41;103965.41;5053296;28;20037;-79
2023/01/24 05:06:47;;;;;;;0.30;0.30;;;;;;;5.08;65.12;103974.91;5054584;28;20036;-79
2023/01/24 05:09:13;;;;;;;0.40;0.40;;;;;;;5.11;65.43;103976.78;5054050;28;20025;-79
2023/01/24 05:11:39;;;;;;;3.20;1.95;;;;;;;5.13;65.19;103970.81;5058463;28;20028;-79
2023/01/24 05:14:07;;;;;;;0.20;0.20;;;;;;;5.16;65.87;103970.09;5054754;28;20024;-79
2023/01/24 05:16:33;;;;;;;0.20;0.20;;;;;;;5.11;65.13;103967.22;5052233;28;20036;-79
2023/01/24 05:18:59;;;;;;;0.28;0.28;;;;;;;5.11;65.40;103969.84;5052870;28;20031;-79
2023/01/24 05:21:25;;;;;;;0.10;0.10;;;;;;;5.09;65.43;103967.94;5053572;28;20091;-79
2023/01/24 05:23:52;;;;;;;0.10;0.10;;;;;;;5.10;65.50;103965.41;5062890;28;20024;-79
2023/01/24 05:26:21;;;;;;;0.15;0.15;;;;;;;5.07;65.40;103967.88;5054981;28;20020;-79
2023/01/24 05:28:48;;;;;;;0.10;0.10;;;;;;;5.07;65.23;103969.59;5053729;28;20098;-79
2023/01/24 05:31:15;;;;;;;0.20;0.20;;;;;;;5.07;65.67;103970.50;5052245;28;20029;-79
2023/01/24 05:33:41;;;;;;;0.52;0.52;;;;;;;5.08;65.52;103977.53;5054383;28;20025;-79
2023/01/24 05:36:10;;;;;;;0.95;0.70;;;;;;;5.07;65.31;103973.13;5054538;28;20032;-79
2023/01/24 05:38:36;;;;;;;0.65;0.65;;;;;;;5.06;65.39;103978.28;5055263;28;20033;-79
2023/01/24 05:41:06;;;;;;;0.10;0.10;;;;;;;5.02;65.49;103977.22;5053968;28;20099;-79
2023/01/24 05:43:33;;;;;;;0.20;0.20;;;;;;;5.02;65.54;103978.13;5054657;28;20024;-79
2023/01/24 05:46:04;;;;;;;1.25;0.55;;;;;;;5.04;65.39;103975.59;5052526;28;20036;-79
2023/01/24 05:48:30;;;;;;;4.95;0.73;;;;;;;5.08;65.71;103981.91;5053545;28;20223;-79
2023/01/24 05:53:37;;;;;;;0.10;0.10;;;;;;;5.08;65.97;103981.91;5111129;27;20412;-79
2023/01/24 05:56:07;;;;;;;0.20;0.20;;;;;;;5.08;65.86;103980.16;5099166;28;20102;-79
2023/01/24 05:58:36;;;;;;;0.10;0.10;;;;;;;5.09;65.78;103989.88;5091118;28;20044;-79
2023/01/24 06:01:07;;;;;;;0.30;0.30;;;;;;;5.08;65.68;103990.69;5090589;28;20553;-79
2023/01/24 06:03:34;;;;;;;0.17;0.17;;;;;;;5.02;65.68;103990.34;5090833;28;20036;-79
2023/01/24 06:06:00;;;;;;;0.32;0.32;;;;;;;5.03;65.61;103994.78;5089555;28;20034;-79
2023/01/24 06:08:26;;;;;;;0.82;0.82;;;;;;;5.05;65.72;103982.66;5090142;28;20033;-79
2023/01/24 06:10:52;;;;;;;0.10;0.10;;;;;;;5.04;65.50;103988.72;5088781;28;20437;-79
2023/01/24 06:13:18;;;;;;;0.10;0.10;;;;;;;5.03;65.47;103992.16;5090668;28;20502;-79
2023/01/24 06:15:44;;;;;;;0.40;0.40;;;;;;;5.04;65.52;103990.47;5087776;28;20043;-79
2023/01/24 06:18:17;;;;;;;0.55;0.55;;;;;;;5.03;65.32;103989.53;5090018;28;20061;-79
2023/01/24 06:20:43;;;;;;;0.20;0.20;;;;;;;5.03;65.65;103994.78;5074610;28;20066;-79
2023/01/24 06:23:23;;;;;;;0.38;0.38;;;;;;;5.06;65.62;103992.34;5076915;28;20033;-80
2023/01/24 06:25:50;;;;;;;0.10;0.10;;;;;;;5.03;65.60;104000.06;5069934;28;20433;-80
2023/01/24 06:28:16;;;;;;;0.20;0.20;;;;;;;4.98;65.37;103986.66;5072349;28;20029;-79
2023/01/24 06:30:49;;;;;;;0.10;0.10;;;;;;;5.01;65.65;103992.09;5071922;28;20506;-79
2023/01/24 06:39:15;;;;;;;0.10;0.10;;;;;;;5.03;65.32;104013.19;5069050;28;20399;-80
2023/01/24 06:41:42;;;;;;;0.10;0.10;;;;;;;5.02;65.73;104014.94;5072308;28;20052;-80
2023/01/24 06:44:11;;;;;;;1.27;1.27;;;;;;;5.04;65.66;104016.75;5065667;28;20039;-80
2023/01/24 06:46:37;;;;;;;0.15;0.15;;;;;;;4.99;65.58;104011.22;5052492;28;20120;-81
2023/01/24 06:49:03;;;;;;;0.10;0.10;;;;;;;5.00;65.67;104002.53;5065839;28;20039;-80
2023/01/24 06:51:29;;;;;;;0.10;0.10;;;;;;;5.02;65.69;104003.50;5057192;28;20041;-80
2023/01/24 06:53:55;;;;;;;0.10;0.10;;;;;;;5.00;65.64;104010.41;5062610;28;20051;-80
2023/01/24 06:56:21;;;;;;;0.10;0.10;;;;;;;4.98;65.32;104012.03;5050071;28;20033;-80
2023/01/24 06:58:47;;;;;;;0.10;0.10;;;;;;;4.97;65.43;104004.97;5048753;28;20498;-80
2023/01/24 07:01:14;;;;;;;0.20;0.20;;;;;;;4.97;65.42;104008.53;5052815;28;20037;-80
2023/01/24 07:03:40;;;;;;;1.25;1.25;;;;;;;4.95;65.24;104014.53;5065869;28;20392;-80
2023/01/24 07:06:06;;;;;;;0.20;0.20;;;;;;;4.94;65.25;104010.06;5062082;28;20033;-80
2023/01/24 07:08:32;;;;;;;0.10;0.10;;;;;;;4.89;65.27;104011.56;5062415;28;20029;-80
2023/01/24 07:10:59;;;;;;;0.10;0.10;;;;;;;4.93;65.53;104014.41;5057038;28;20073;-79
2023/01/24 07:13:25;;;;;;;0.55;0.55;;;;;;;4.91;65.53;104015.16;5058144;28;20481;-79
2023/01/24 07:15:51;;;;;;;1.73;0.50;;;;;;;4.92;65.49;104019.59;5054709;28;20116;-81
2023/01/24 07:18:18;;;;;;;0.80;0.80;;;;;;;4.96;65.52;104019.84;5052713;28;20524;-78
2023/01/24 07:20:45;;;;;;;0.10;0.10;;;;;;;4.90;65.43;104018.59;5052037;28;20099;-81
2023/01/24 07:23:23;;;;;;;0.13;0.13;;;;;;;4.99;65.72;104024.38;5057717;28;20067;-81
2023/01/24 07:25:50;;;;;;;1.45;1.45;;;;;;;4.96;65.84;104029.44;5050179;28;20115;-82
2023/01/24 07:28:16;;;;;;;0.73;0.73;;;;;;;4.95;65.96;104019.78;5050233;28;20056;-81
2023/01/24 07:30:44;;;;;;;0.88;0.88;;;;;;;4.96;65.82;104024.19;5041952;28;20036;-81
2023/01/24 07:33:12;;;;;;;0.10;0.10;;;;;;;4.92;65.64;104038.91;5054473;28;20033;-81
2023/01/24 07:35:39;;;;;;;0.90;0.90;;;;;;;4.91;65.60;104036.16;5058163;28;20042;-83
2023/01/24 07:38:05;;;;;;;1.67;1.40;;;;;;;4.86;65.51;104039.47;5050189;28;20033;-80
2023/01/24 07:40:31;;;;;;;0.10;0.10;;;;;;;4.85;65.48;104042.91;5056799;28;20108;-81
2023/01/24 07:43:00;;;;;;;0.17;0.17;;;;;;;4.88;65.77;104041.28;5058757;28;20032;-81
2023/01/24 07:45:27;;;;;;;0.30;0.30;;;;;;;4.85;65.54;104042.91;5065906;28;20021;-81
2023/01/24 07:47:58;;;;;;;0.10;0.10;;;;;;;4.90;65.55;104050.13;5062753;28;20397;-81
2023/01/24 07:50:25;;;;;;;0.10;0.10;;;;;;;4.88;65.63;104046.53;5040390;28;20481;-81
2023/01/24 07:52:53;;;;;;;0.13;0.13;;;;;;;4.90;65.63;104050.13;5047185;28;20417;-81
2023/01/24 07:55:20;;;;;;;0.15;0.15;;;;;;;4.86;65.50;104049.97;5046371;28;20079;-81
2023/01/24 07:57:47;;;;;;;1.55;1.45;;;;;;;4.87;65.53;104053.50;5036419;28;20034;-81
2023/01/24 08:00:14;;;;;;;0.20;0.20;;;;;;;4.84;65.59;104056.84;5027395;28;20026;-81
2023/01/24 08:02:41;;;;;;;0.47;0.47;;;;;;;4.86;65.60;104054.34;5042578;28;20095;-81
2023/01/24 08:05:07;;;;;;;0.77;0.77;;;;;;;4.87;65.59;104056.13;5039153;28;20034;-80
2023/01/24 08:07:33;;;;;;;0.98;0.98;;;;;;;4.88;65.66;104057.94;5036703;28;20037;-81
2023/01/24 08:09:59;;;;;;;0.15;0.15;;;;;;;4.89;65.71;104053.59;5034571;28;20098;-81
2023/01/24 08:12:25;;;;;;;0.13;0.13;;;;;;;4.89;65.51;104064.09;5035927;28;20119;-81
2023/01/24 08:14:51;;;;;;;0.63;0.63;;;;;;;4.89;65.85;104064.09;5047594;28;20064;-80
2023/01/24 08:17:17;;;;;;;0.20;0.20;;;;;;;4.92;65.92;104059.00;5056150;28;20041;-80
2023/01/24 08:19:44;;;;;;;0.65;0.65;;;;;;;4.92;65.71;104064.25;5049644;28;20075;-80
2023/01/24 08:22:10;;;;;;;0.65;0.65;;;;;;;4.91;65.34;104057.19;5046243;28;20036;-81
2023/01/24 08:24:36;;;;;;;0.32;0.32;;;;;;;4.85;64.85;104066.53;5040802;28;20083;-81
2023/01/24 08:27:03;;;;;;;0.50;0.50;;;;;;;4.86;64.90;104068.34;5038435;28;20068;-81
2023/01/24 08:29:29;;;;;;;0.38;0.38;;;;;;;4.90;65.28;104063.25;5043202;28;20554;-81
2023/01/24 08:31:57;;;;;;;2.15;1.95;;;;;;;4.93;65.53;104066.97;5048599;28;20040;-81
2023/01/24 08:34:23;;;;;;;6.65;1.33;;;;;;;4.95;65.64;104074.97;5037336;28;20040;-81
2023/01/24 08:36:49;;;;;;;0.13;0.13;;;;;;;4.94;65.21;104074.03;5036842;28;20497;-80
2023/01/24 08:39:15;;;;;;;0.30;0.30;;;;;;;4.95;65.53;104078.47;5036204;28;20037;-80
2023/01/24 08:41:45;;;;;;;0.25;0.25;;;;;;;4.99;65.62;104082.19;5040050;28;20519;-80
2023/01/24 08:44:12;;;;;;;0.95;0.95;;;;;;;4.97;65.59;104083.81;5045504;28;20033;-80
2023/01/24 08:46:38;;;;;;;0.20;0.20;;;;;;;4.96;65.31;104077.66;5043631;28;20028;-80
2023/01/24 08:49:04;;;;;;;1.42;1.38;;;;;;;4.96;65.43;104082.00;5041207;28;20460;-81
2023/01/24 08:51:30;;;;;;;0.10;0.10;;;;;;;4.97;65.63;104089.06;5043792;28;20409;-79
2023/01/24 08:53:56;;;;;;;0.90;0.90;;;;;;;4.94;65.58;104083.66;5040959;28;20051;-80
2023/01/24 08:56:22;;;;;;;1.20;1.13;;;;;;;4.96;65.72;104084.63;5032123;28;20025;-80
2023/01/24 08:58:48;;;;;;;0.30;0.30;;;;;;;4.98;65.50;104085.63;5033111;28;20025;-79
2023/01/24 09:01:14;;;;;;;0.80;0.80;;;;;;;5.01;65.35;104091.97;5040391;28;20033;-80
2023/01/24 09:03:40;;;;;;;1.65;1.10;;;;;;;5.05;65.71;104086.84;5040317;28;20033;-80
2023/01/24 09:06:06;;;;;;;1.92;1.75;;;;;;;5.06;65.72;104086.97;5034187;28;20460;-81
2023/01/24 09:08:33;;;;;;;0.20;0.20;;;;;;;5.07;65.51;104091.41;5034914;28;20036;-81
2023/01/24 09:11:00;;;;;;;0.35;0.35;;;;;;;5.07;65.37;104091.41;5041297;28;20048;-80
2023/01/24 09:13:26;;;;;;;0.10;0.10;;;;;;;5.10;65.36;104091.56;5038171;28;20033;-81
2023/01/24 09:15:53;;;;;;;0.43;0.43;;;;;;;5.13;65.46;104103.97;5045094;28;20037;-81
2023/01/24 09:18:20;;;;;;;0.20;0.20;;;;;;;5.13;65.34;104102.22;5047949;28;20040;-81
2023/01/24 09:20:46;;;;;;;0.20;0.20;;;;;;;5.13;65.17;104107.47;5046577;28;20060;-81
2023/01/24 09:23:14;;;;;;;0.82;0.82;;;;;;;5.13;65.04;104102.22;5054646;28;20033;-81
2023/01/24 09:25:41;;;;;;;2.30;2.20;;;;;;;5.15;65.38;104105.84;5053524;28;20039;-81
2023/01/24 09:28:07;;;;;;;1.20;1.20;;;;;;;5.16;65.54;104107.66;5054485;28;20017;-80
2023/01/24 09:30:34;;;;;;;0.47;0.47;;;;;;;5.18;65.61;104116.56;5043824;28;20040;-80
2023/01/24 09:33:05;;;;;;;0.73;0.73;;;;;;;5.24;65.48;104112.44;5054865;28;20078;-81
2023/01/24 09:35:33;;;;;;;0.35;0.35;;;;;;;5.25;65.25;104111.63;5051856;28;20409;-80
2023/01/24 09:37:59;;;;;;;0.68;0.68;;;;;;;5.25;65.24;104111.63;5052798;28;20025;-81
2023/01/24 09:43:43;;;;;;;0.80;0.80;;;;;;;5.30;65.27;104115.41;5074778;28;20379;-81
2023/01/24 09:46:24;;;;;;;0.30;0.30;;;;;;;5.25;65.22;104117.78;5045741;28;20065;-81
2023/01/24 09:48:58;;;;;;;0.55;0.55;;;;;;;5.20;65.24;104114.00;5046375;28;20099;-82
2023/01/24 09:51:29;;;;;;;0.35;0.35;;;;;;;5.16;65.11;104131.34;5054900;28;20114;-81
2023/01/24 09:53:59;;;;;;;0.20;0.20;;;;;;;5.18;65.26;104128.78;5059872;28;20040;-79
2023/01/24 09:56:34;;;;;;;0.82;0.82;;;;;;;5.19;65.48;104122.72;5056147;28;20035;-82
2023/01/24 09:59:30;;;;;;;0.30;0.30;;;;;;;5.26;65.39;104126.56;5052911;28;20432;-82
2023/01/24 10:01:56;;;;;;;0.25;0.25;;;;;;;5.22;65.45;104125.53;5048179;28;20561;-82
2023/01/24 10:07:41;;;;;;;0.40;0.40;;;;;;;5.33;65.65;104137.53;5094120;28;20401;-80
2023/01/24 10:13:29;;;;;;;0.30;0.30;;;;;;;5.33;65.25;104126.09;5110225;27;20395;-81
2023/01/24 10:19:10;;;;;;;0.20;0.20;;;;;;;5.31;65.27;104127.75;5071888;27;20386;-80
2023/01/24 10:22:03;;;;;;;0.10;0.10;;;;;;;5.40;65.12;104122.97;5058469;28;20033;-80
2023/01/24 10:24:35;;;;;;;0.20;0.20;;;;;;;5.34;64.83;104130.53;5078487;28;20037;-80
2023/01/24 10:27:12;;;;;;;0.20;0.20;;;;;;;5.35;64.75;104127.09;5057832;28;20083;-81
2023/01/24 10:29:40;;;;;;;0.80;0.80;;;;;;;5.32;64.91;104129.53;5058574;28;20040;-81
2023/01/24 10:32:15;;;;;;;1.45;1.38;;;;;;;5.40;65.22;104128.25;5052589;28;20053;-80
2023/01/24 10:34:47;;;;;;;0.20;0.20;;;;;;;5.37;65.04;104121.91;5048688;28;20029;-81
2023/01/24 10:37:22;;;;;;;1.57;1.50;;;;;;;5.40;65.16;104117.72;5058023;28;20036;-81
2023/01/24 10:39:49;;;;;;;0.50;0.50;;;;;;;5.36;64.97;104115.75;5046916;28;20033;-80
2023/01/24 10:42:22;;;;;;;0.20;0.20;;;;;;;5.41;64.95;104110.72;5059667;28;20041;-81
2023/01/24 10:44:49;;;;;;;0.28;0.28;;;;;;;5.38;64.74;104119.34;5059219;28;20055;-80
2023/01/24 10:47:40;;;;;;;0.80;0.80;;;;;;;5.48;64.97;104111.16;5050523;28;20104;-81
2023/01/24 10:50:09;;;;;;;0.32;0.32;;;;;;;5.41;64.70;104118.59;5047358;28;20144;-81
2023/01/24 10:52:35;;;;;;;0.10;0.10;;;;;;;5.44;64.70;104113.53;5049040;28;20175;-81
2023/01/24 10:55:05;;;;;;;1.10;0.77;;;;;;;5.45;64.65;104113.59;5058802;28;20021;-80
2023/01/24 11:02:52;;;;;;;0.30;0.30;;;;;;;5.51;64.72;104106.03;5145893;27;1190529;-80
2023/01/24 11:05:20;;;;;;;0.40;0.40;;;;;;;5.51;64.70;104098.16;5177086;27;20543;-82
2023/01/24 11:07:51;;;;;;;0.85;0.85;;;;;;;5.54;64.59;104096.53;5176156;27;20531;-83
2023/01/24 11:10:38;;;;;;;0.15;0.15;;;;;;;5.62;64.50;104097.81;5154632;27;20312;-84
2023/01/24 11:13:27;;;;;;;0.20;0.20;;;;;;;5.62;64.42;104087.28;5148005;27;20034;-82
2023/01/24 11:16:01;;;;;;;0.10;0.10;;;;;;;5.61;64.54;104085.50;5149173;27;20512;-84
2023/01/24 11:18:29;;;;;;;0.43;0.32;;;;;;;5.62;64.35;104084.66;5155839;27;20031;-84
2023/01/24 11:21:15;;;;;;;1.23;1.23;;;;;;;5.70;64.22;104085.97;5158567;27;20026;-82
2023/01/24 11:23:42;;;;;;;1.70;1.60;;;;;;;5.66;64.38;104084.91;5161117;27;20027;-84
2023/01/24 11:26:31;;;;;;;0.10;0.10;;;;;;;5.73;63.97;104086.16;5143601;27;20023;-83
2023/01/24 11:29:01;;;;;;;0.10;0.10;;;;;;;5.71;64.46;104087.78;5148536;27;20324;-83
2023/01/24 11:31:36;;;;;;;0.85;0.80;;;;;;;5.68;64.22;104087.63;5142224;27;20079;-83
2023/01/24 11:34:25;;;;;;;5.13;1.38;;;;;;;5.67;64.11;104088.47;5157920;27;20078;-83
2023/01/24 11:42:20;;;;;;;0.40;0.40;;;;;;;5.61;63.95;104075.88;5104439;27;1251405;-83
2023/01/24 11:45:14;;;;;;;8.80;0.85;;;;;;;5.64;63.39;104069.88;5125620;27;20028;-84
2023/01/24 11:48:12;;;;;;;0.63;0.63;;;;;;;5.70;63.59;104075.47;5128651;28;20045;-85
2023/01/24 11:51:03;;;;;;;0.55;0.55;;;;;;;5.67;63.96;104070.06;5103893;28;20024;-83
2023/01/24 11:53:47;;;;;;;0.10;0.10;;;;;;;5.68;63.95;104063.94;5101186;28;20026;-83
2023/01/24 12:02:02;;;;;;;0.10;0.10;;;;;;;5.65;63.94;104056.78;5070570;28;20933;-80
2023/01/24 12:13:21;;;;;;;0.20;0.20;;;;;;;5.70;63.13;104043.88;5109164;27;20435;-83
2023/01/24 12:16:15;;;;;;;1.55;1.45;;;;;;;5.74;63.21;104035.31;5097952;28;20028;-81
2023/01/24 12:19:08;;;;;;;0.52;0.52;;;;;;;5.71;63.12;104029.00;5098427;28;20082;-81
2023/01/24 12:21:34;;;;;;;0.10;0.10;;;;;;;5.67;63.37;104026.22;5099382;28;20051;-83
2023/01/24 12:24:10;;;;;;;1.98;1.88;;;;;;;5.69;63.28;104026.28;5110127;28;20032;-83
2023/01/24 12:26:43;;;;;;;0.30;0.30;;;;;;;5.70;63.28;104020.22;5109752;28;20119;-82
2023/01/24 12:29:20;;;;;;;0.20;0.20;;;;;;;5.76;63.54;104023.16;5113067;27;20032;-83
2023/01/24 12:31:55;;;;;;;0.30;0.30;;;;;;;5.75;63.33;104010.81;5118692;28;20023;-80
2023/01/24 12:40:20;;;;;;;0.20;0.20;;;;;;;5.82;63.42;104006.78;5089265;27;20148;-82
2023/01/24 12:43:18;;;;;;;0.20;0.20;;;;;;;5.82;63.07;104007.69;5097058;28;20047;-81
2023/01/24 12:46:08;;;;;;;2.50;1.17;;;;;;;5.73;63.33;103996.72;5091037;28;20028;-81
2023/01/24 12:54:04;;;;;;;0.10;0.10;;;;;;;5.67;63.28;104002.53;5053592;28;20384;-81
2023/01/24 12:59:12;;;;;;;0.68;0.68;;;;;;;5.65;63.45;104004.19;5050412;28;20904;-83
2023/01/24 13:04:26;;;;;;;0.75;0.75;;;;;;;5.69;63.30;103999.97;5095529;27;20356;-83
2023/01/24 13:07:13;;;;;;;3.60;1.23;;;;;;;5.74;63.11;104002.84;5109672;28;20032;-83
2023/01/24 13:10:05;;;;;;;2.20;1.90;;;;;;;5.73;63.54;104003.69;5093403;28;20064;-81
2023/01/24 13:12:32;;;;;;;2.17;1.83;;;;;;;5.69;63.19;103992.09;5095653;28;20032;-82
2023/01/24 13:18:00;;;;;;;0.95;0.95;;;;;;;5.70;63.43;103987.75;5063198;28;20992;-83
2023/01/24 13:26:07;;;;;;;0.10;0.10;;;;;;;5.61;63.22;103982.91;5140895;27;20374;-84
2023/01/24 13:29:02;;;;;;;0.32;0.32;;;;;;;5.62;63.63;103987.34;5120337;27;20046;-84
2023/01/24 13:34:16;;;;;;;2.20;1.55;;;;;;;5.58;63.51;103988.00;5122307;27;20419;-83
2023/01/24 13:36:48;;;;;;;0.20;0.20;;;;;;;5.54;63.01;103981.69;5087831;28;20024;-82